createdAt,value
2019-03-04T00:02:44.162Z,10.77
2019-03-04T00:07:46.425Z,7.13
2019-03-04T00:12:49.696Z,9.30
2019-03-04T00:17:52.126Z,6.07
2019-03-04T00:22:54.989Z,8.23
2019-03-04T00:27:57.485Z,10.63
2019-03-04T00:32:59.684Z,9.50
2019-03-04T00:38:01.564Z,10.37
2019-03-04T00:43:03.519Z,11.13
2019-03-04T00:48:05.545Z,8.33
2019-03-04T00:53:07.458Z,9.57
2019-03-04T00:58:09.625Z,6.87
2019-03-04T01:03:12.197Z,14.20
2019-03-04T01:08:14.853Z,8.80
2019-03-04T01:13:16.756Z,8.80
2019-03-04T01:18:18.605Z,8.87
2019-03-04T01:23:21.096Z,8.60
2019-03-04T01:28:23.816Z,10.33
2019-03-04T01:33:25.774Z,6.53
2019-03-04T01:38:27.985Z,11.03
2019-03-04T01:43:30.776Z,10.20
2019-03-04T01:48:32.949Z,6.60
2019-03-04T01:53:35.164Z,10.43
2019-03-04T01:58:37.740Z,10.37
2019-03-04T02:03:39.807Z,8.73
2019-03-04T02:08:42.485Z,15.20
2019-03-04T02:13:45.000Z,9.23
2019-03-04T02:18:47.400Z,9.97
2019-03-04T02:23:49.892Z,7.70
2019-03-04T02:28:52.197Z,11.20
2019-03-04T02:33:54.690Z,8.57
2019-03-04T02:38:58.506Z,6.77
2019-03-04T02:44:00.776Z,7.67
2019-03-04T02:49:03.473Z,9.67
2019-03-04T02:54:05.964Z,11.10
2019-03-04T02:59:10.602Z,9.10
2019-03-04T03:04:13.397Z,8.07
2019-03-04T03:09:15.330Z,8.40
2019-03-04T03:14:17.578Z,6.57
2019-03-04T03:19:20.181Z,6.70
2019-03-04T03:24:22.540Z,9.43
2019-03-04T03:29:24.664Z,8.97
2019-03-04T03:34:27.150Z,8.20
2019-03-04T03:39:29.349Z,10.53
2019-03-04T03:44:31.351Z,10.47
2019-03-04T03:49:33.998Z,9.30
2019-03-04T03:54:36.352Z,8.77
2019-03-04T03:59:38.866Z,6.87
2019-03-04T04:04:40.824Z,8.03
2019-03-04T04:09:43.270Z,8.67
2019-03-04T04:14:46.090Z,10.13
2019-03-04T04:19:48.538Z,7.73
2019-03-04T04:24:51.454Z,8.73
2019-03-04T04:29:54.113Z,13.07
2019-03-04T04:34:56.104Z,8.00
2019-03-04T04:39:58.056Z,9.00
2019-03-04T04:45:00.149Z,7.30
2019-03-04T04:50:02.354Z,11.13
2019-03-04T04:55:04.437Z,9.47
2019-03-04T05:00:08.920Z,11.93
2019-03-04T05:05:10.960Z,9.47
2019-03-04T05:10:15.025Z,8.43
2019-03-04T05:15:17.083Z,11.00
2019-03-04T05:20:20.858Z,7.40
2019-03-04T05:25:24.115Z,10.03
2019-03-04T05:30:26.688Z,11.77
2019-03-04T05:35:28.519Z,11.47
2019-03-04T05:40:31.058Z,7.77
2019-03-04T05:45:33.757Z,8.73
2019-03-04T05:50:36.200Z,9.70
2019-03-04T05:55:38.350Z,10.97
2019-03-04T06:00:41.801Z,11.33
2019-03-04T06:05:43.809Z,9.13
2019-03-04T06:10:46.008Z,7.10
2019-03-04T06:15:48.100Z,6.77
2019-03-04T06:20:50.315Z,11.20
2019-03-04T06:25:53.386Z,10.03
2019-03-04T06:30:55.258Z,7.37
2019-03-04T06:35:57.537Z,6.03
2019-03-04T06:40:59.522Z,8.77
2019-03-04T06:46:01.909Z,7.73
2019-03-04T06:51:06.168Z,6.73
2019-03-04T06:56:17.317Z,7.37
2019-03-04T07:01:24.918Z,9.23
2019-03-04T07:06:26.843Z,7.03
2019-03-04T07:11:29.505Z,6.70
2019-03-04T07:16:32.139Z,10.27
2019-03-04T07:21:34.352Z,11.53
2019-03-04T07:26:36.200Z,7.47
2019-03-04T07:31:38.283Z,8.53
2019-03-04T07:36:40.230Z,9.67
2019-03-04T07:41:44.269Z,5.50
2019-03-04T07:46:47.007Z,7.07
2019-03-04T07:51:49.560Z,6.23
2019-03-04T07:56:51.956Z,3.90
2019-03-04T08:01:53.829Z,4.90
2019-03-04T08:07:31.588Z,7.57
2019-03-04T08:13:23.505Z,6.63
2019-03-04T08:18:26.573Z,9.10
2019-03-04T08:23:29.052Z,5.50
2019-03-04T08:28:31.285Z,4.73
2019-03-04T08:33:34.076Z,6.27
2019-03-04T08:38:36.311Z,6.43
2019-03-04T08:43:44.609Z,5.90
2019-03-04T08:48:47.800Z,5.40
2019-03-04T08:53:49.934Z,6.33
2019-03-04T08:58:51.836Z,6.00
2019-03-04T09:03:53.681Z,7.00
2019-03-04T09:08:55.957Z,8.27
2019-03-04T09:13:57.953Z,6.13
2019-03-04T09:19:00.392Z,7.20
2019-03-04T09:24:03.445Z,8.03
2019-03-04T09:29:05.679Z,7.60
2019-03-04T09:34:08.176Z,5.40
2019-03-04T09:39:14.019Z,7.17
2019-03-04T09:44:16.128Z,5.20
2019-03-04T09:49:18.676Z,5.90
2019-03-04T09:54:20.577Z,7.20
2019-03-04T09:59:22.864Z,9.53
2019-03-04T10:05:10.742Z,6.70
2019-03-04T10:10:54.192Z,5.57
2019-03-04T10:16:30.168Z,4.37
2019-03-04T10:22:18.351Z,7.87
2019-03-04T10:27:46.293Z,6.77
2019-03-04T10:33:30.070Z,6.20
2019-03-04T10:39:09.805Z,5.80
2019-03-04T10:44:37.981Z,5.63
2019-03-04T10:49:40.060Z,4.73
2019-03-04T10:54:42.184Z,6.90
2019-03-04T10:59:45.535Z,5.90
2019-03-04T11:04:47.750Z,3.93
2019-03-04T11:09:50.600Z,6.63
2019-03-04T11:14:53.008Z,2.10
2019-03-04T11:19:55.907Z,5.27
2019-03-04T11:24:58.093Z,4.57
2019-03-04T11:30:00.443Z,2.20
2019-03-04T11:35:03.180Z,3.30
2019-03-04T11:40:24.594Z,3.00
2019-03-04T11:45:26.761Z,4.43
2019-03-04T11:50:29.170Z,1.57
2019-03-04T11:55:31.280Z,3.23
2019-03-04T12:00:39.611Z,2.00
2019-03-04T12:05:41.549Z,2.73
2019-03-04T12:10:44.357Z,1.23
2019-03-04T12:15:46.297Z,2.13
2019-03-04T12:20:48.416Z,1.63
2019-03-04T12:25:50.457Z,5.53
2019-03-04T12:30:52.435Z,1.70
2019-03-04T12:35:55.202Z,2.20
2019-03-04T12:40:57.173Z,3.47
2019-03-04T12:45:59.774Z,2.57
2019-03-04T12:51:02.140Z,1.40
2019-03-04T12:56:04.360Z,4.83
2019-03-04T13:01:06.355Z,2.47
2019-03-04T13:06:09.129Z,2.50
2019-03-04T13:11:11.304Z,0.70
2019-03-04T13:16:13.570Z,2.80
2019-03-04T13:21:16.392Z,3.10
2019-03-04T13:26:18.225Z,4.83
2019-03-04T13:31:20.643Z,5.10
2019-03-04T13:36:22.584Z,3.60
2019-03-04T13:41:25.129Z,3.40
2019-03-04T13:46:29.036Z,3.67
2019-03-04T13:51:31.086Z,1.50
2019-03-04T13:56:32.948Z,2.70
2019-03-04T14:01:34.895Z,3.23
2019-03-04T14:06:38.064Z,6.93
2019-03-04T14:11:40.488Z,4.13
2019-03-04T14:16:42.646Z,1.10
2019-03-04T14:21:44.640Z,1.17
2019-03-04T14:26:46.963Z,6.00
2019-03-04T14:31:49.408Z,1.93
2019-03-04T14:36:51.293Z,2.40
2019-03-04T14:41:53.473Z,3.93
2019-03-04T14:46:55.287Z,3.27
2019-03-04T14:51:57.437Z,5.03
2019-03-04T14:57:00.128Z,3.53
2019-03-04T15:02:02.151Z,5.33
2019-03-04T15:07:04.069Z,8.43
2019-03-04T15:12:06.366Z,2.40
2019-03-04T15:17:18.696Z,3.60
2019-03-04T15:22:21.092Z,3.30
2019-03-04T15:27:23.363Z,10.17
2019-03-04T15:32:25.727Z,4.23
2019-03-04T15:37:28.280Z,5.47
2019-03-04T15:42:30.230Z,3.43
2019-03-04T15:47:32.256Z,8.73
2019-03-04T15:52:35.377Z,4.73
2019-03-04T15:57:37.603Z,5.57
2019-03-04T16:02:39.653Z,3.70
2019-03-04T16:07:42.080Z,2.90
2019-03-04T16:12:44.669Z,4.60
2019-03-04T16:17:46.690Z,2.20
2019-03-04T16:22:48.843Z,1.90
2019-03-04T16:27:58.598Z,0.97
2019-03-04T16:33:00.844Z,1.63
2019-03-04T16:38:03.063Z,2.97
2019-03-04T16:43:05.324Z,1.33
2019-03-04T16:48:07.549Z,3.33
2019-03-04T16:53:11.385Z,1.10
2019-03-04T16:58:13.856Z,2.03
2019-03-04T17:03:16.173Z,2.53
2019-03-04T17:08:18.947Z,1.90
2019-03-04T17:13:21.334Z,4.23
2019-03-04T17:18:23.238Z,4.17
2019-03-04T17:23:25.244Z,1.80
2019-03-04T17:28:27.698Z,2.30
2019-03-04T17:33:29.800Z,2.00
2019-03-04T17:38:31.836Z,4.20
2019-03-04T17:43:34.177Z,2.93
2019-03-04T17:48:36.712Z,2.90
2019-03-04T17:53:38.465Z,2.20
2019-03-04T17:58:40.236Z,6.30
2019-03-04T18:03:42.215Z,3.57
2019-03-04T18:08:44.238Z,2.10
2019-03-04T18:13:46.541Z,3.77
2019-03-04T18:18:48.712Z,3.20
2019-03-04T18:23:50.612Z,3.27
2019-03-04T18:29:11.965Z,3.73
2019-03-04T18:34:54.668Z,3.83
2019-03-04T18:40:29.677Z,5.40
2019-03-04T18:46:10.797Z,4.17
2019-03-04T18:51:14.311Z,3.30
2019-03-04T18:56:21.951Z,4.80
2019-03-04T19:01:21.145Z,5.50
2019-03-04T19:06:23.268Z,4.57
2019-03-04T19:11:25.359Z,6.87
2019-03-04T19:16:27.285Z,5.33
2019-03-04T19:21:29.231Z,5.77
2019-03-04T19:26:31.375Z,4.67
2019-03-04T19:31:33.577Z,7.20
2019-03-04T19:36:35.502Z,4.87
2019-03-04T19:41:37.596Z,4.47
2019-03-04T19:46:40.339Z,6.23
2019-03-04T19:51:42.305Z,3.63
2019-03-04T19:56:44.677Z,4.37
2019-03-04T20:01:47.207Z,5.97
2019-03-04T20:06:49.943Z,5.30
2019-03-04T20:11:52.035Z,5.57
2019-03-04T20:16:54.039Z,6.90
2019-03-04T20:21:55.976Z,5.30
2019-03-04T20:26:57.843Z,6.10
2019-03-04T20:31:59.713Z,6.77
2019-03-04T20:37:01.960Z,5.23
2019-03-04T20:42:05.348Z,6.37
2019-03-04T20:47:07.309Z,7.80
2019-03-04T20:52:09.634Z,6.03
2019-03-04T20:57:12.281Z,6.67
2019-03-04T21:02:14.371Z,5.93
2019-03-04T21:07:16.827Z,10.10
2019-03-04T21:12:19.573Z,7.30
2019-03-04T21:17:24.018Z,8.27
2019-03-04T21:22:38.708Z,9.63
2019-03-04T21:27:40.541Z,8.63
2019-03-04T21:33:16.721Z,7.03
2019-03-04T21:38:21.652Z,6.83
2019-03-04T21:43:28.559Z,7.77
2019-03-04T21:48:40.941Z,5.97
2019-03-04T21:53:44.994Z,11.50
2019-03-04T21:58:47.965Z,11.13
2019-03-04T22:03:50.543Z,6.03
2019-03-04T22:08:52.868Z,9.53
2019-03-04T22:13:55.074Z,10.87
2019-03-04T22:18:58.880Z,10.90
2019-03-04T22:24:01.450Z,9.73
2019-03-04T22:29:04.427Z,8.00
2019-03-04T22:34:07.246Z,8.03
2019-03-04T22:39:09.724Z,6.73
2019-03-04T22:44:12.462Z,10.90
2019-03-04T22:49:14.461Z,10.90
2019-03-04T22:54:16.745Z,9.97
2019-03-04T22:59:18.678Z,10.77
2019-03-04T23:04:37.056Z,9.43
2019-03-04T23:10:33.461Z,9.53
2019-03-04T23:15:35.886Z,10.87
2019-03-04T23:20:37.721Z,9.37
2019-03-04T23:25:40.977Z,7.57
2019-03-04T23:30:43.776Z,9.20
2019-03-04T23:35:45.688Z,9.43
2019-03-04T23:40:48.250Z,8.47
2019-03-04T23:45:50.156Z,12.57
2019-03-04T23:50:52.571Z,9.80
2019-03-04T23:55:54.545Z,9.63
